Time;durP1;ratioP1;P1;durP2;ratioP2;P2;SDS_P1;SDS_P2;PMS_P1;PMS_P2;Temp;Humidity;BMP_temperature;BMP_pressure;BME280_temperature;BME280_humidity;BME280_pressure;Samples;Min_cycle;Max_cycle;Signal;HPM_P1;HPM_P2
2021/09/09 00:01:47;;;;;;;17.83;10.80;;;;;;;14.39;100.00;96495.28;5021195;28;20045;-66
2021/09/09 00:04:13;;;;;;;16.13;10.60;;;;;;;14.37;100.00;96500.38;5033301;28;20068;-64
2021/09/09 00:06:39;;;;;;;19.33;9.95;;;;;;;14.40;100.00;96503.13;5037483;28;20061;-63
2021/09/09 00:09:05;;;;;;;14.82;10.25;;;;;;;14.52;100.00;96504.69;5013612;28;20045;-61
2021/09/09 00:11:31;;;;;;;14.52;10.07;;;;;;;14.48;100.00;96499.19;5020545;28;20490;-65
2021/09/09 00:13:56;;;;;;;12.82;9.07;;;;;;;14.46;100.00;96507.09;5020735;28;20046;-64
2021/09/09 00:16:22;;;;;;;11.90;8.48;;;;;;;14.49;100.00;96505.50;5015205;28;20049;-66
2021/09/09 00:18:47;;;;;;;13.25;8.55;;;;;;;14.61;100.00;96504.31;5017401;28;20433;-62
2021/09/09 00:21:13;;;;;;;14.60;9.52;;;;;;;14.78;100.00;96506.22;5012861;28;20103;-66
2021/09/09 00:23:38;;;;;;;17.95;9.77;;;;;;;14.85;100.00;96500.69;5014828;28;20096;-66
2021/09/09 00:26:04;;;;;;;11.88;8.25;;;;;;;14.94;100.00;96508.53;5004423;28;20509;-63
2021/09/09 00:28:31;;;;;;;13.40;9.02;;;;;;;15.01;100.00;96508.50;5019222;28;20046;-65
2021/09/09 00:30:56;;;;;;;14.23;8.57;;;;;;;15.00;100.00;96498.69;5017949;28;20081;-63
2021/09/09 00:33:22;;;;;;;12.52;8.75;;;;;;;15.06;100.00;96504.56;5019080;28;20054;-65
2021/09/09 00:35:47;;;;;;;13.57;8.98;;;;;;;15.01;100.00;96505.75;5021370;28;20101;-62
2021/09/09 00:38:13;;;;;;;22.85;9.38;;;;;;;15.00;100.00;96506.13;5011540;28;20033;-65
2021/09/09 00:40:39;;;;;;;14.45;8.90;;;;;;;15.00;100.00;96495.09;5038734;28;20047;-66
2021/09/09 00:43:04;;;;;;;15.38;9.32;;;;;;;14.87;100.00;96503.03;5034129;28;20490;-63
2021/09/09 00:45:29;;;;;;;15.65;10.18;;;;;;;14.44;100.00;96498.44;5038466;28;20076;-64
2021/09/09 00:47:55;;;;;;;13.60;10.30;;;;;;;14.18;100.00;96507.91;5031901;28;20397;-65
2021/09/09 00:50:21;;;;;;;13.98;10.40;;;;;;;14.09;100.00;96508.28;5013601;28;20494;-65
2021/09/09 00:52:49;;;;;;;15.60;9.88;;;;;;;14.14;100.00;96501.63;5019778;28;20054;-65
2021/09/09 00:55:15;;;;;;;16.65;10.60;;;;;;;13.91;100.00;96496.50;5014481;28;20411;-65
2021/09/09 00:57:40;;;;;;;18.40;12.43;;;;;;;13.47;100.00;96494.88;5018816;28;20051;-65
2021/09/09 01:00:07;;;;;;;18.08;11.98;;;;;;;13.21;100.00;96494.03;5017340;28;20119;-64
2021/09/09 01:02:33;;;;;;;23.45;13.43;;;;;;;13.25;100.00;96497.56;5023629;28;20091;-64
2021/09/09 01:04:59;;;;;;;22.00;12.93;;;;;;;13.25;100.00;96489.31;5023179;28;20057;-64
2021/09/09 01:07:25;;;;;;;26.00;15.77;;;;;;;13.30;100.00;96488.94;5019378;28;20406;-66
2021/09/09 01:09:52;;;;;;;23.63;16.38;;;;;;;13.44;100.00;96484.69;5023751;28;20065;-66
2021/09/09 01:12:18;;;;;;;25.20;15.15;;;;;;;13.47;100.00;96486.63;5019004;28;20432;-66
2021/09/09 01:14:43;;;;;;;24.50;14.73;;;;;;;13.57;100.00;96494.13;5024068;28;20410;-66
2021/09/09 01:17:09;;;;;;;27.83;14.90;;;;;;;13.79;100.00;96494.13;5018102;28;20049;-64
2021/09/09 01:19:34;;;;;;;23.27;13.70;;;;;;;13.98;100.00;96499.25;5023928;28;20056;-63
2021/09/09 01:22:00;;;;;;;20.27;13.20;;;;;;;13.95;100.00;96500.84;5024468;28;20498;-65
2021/09/09 01:24:25;;;;;;;20.65;12.98;;;;;;;14.09;100.00;96505.53;5017581;28;20549;-65
2021/09/09 01:26:59;;;;;;;17.83;11.43;;;;;;;14.19;100.00;96506.72;5024803;28;20038;-67
2021/09/09 01:29:27;;;;;;;17.17;11.02;;;;;;;14.28;100.00;96509.09;5020546;28;20048;-64
2021/09/09 01:31:53;;;;;;;21.63;12.05;;;;;;;14.23;100.00;96513.00;5027826;28;20461;-64
2021/09/09 01:34:19;;;;;;;16.65;10.13;;;;;;;14.28;100.00;96504.34;5020648;28;20125;-65
2021/09/09 01:36:45;;;;;;;15.50;10.50;;;;;;;14.26;100.00;96503.16;5025224;28;20144;-65
2021/09/09 01:39:11;;;;;;;14.77;10.13;;;;;;;14.25;100.00;96496.09;5026643;28;20516;-64
2021/09/09 01:41:37;;;;;;;18.80;12.05;;;;;;;14.18;100.00;96496.09;5042820;28;20037;-66
2021/09/09 01:44:04;;;;;;;13.63;9.20;;;;;;;14.27;100.00;96497.25;5040275;28;20040;-63
2021/09/09 01:46:30;;;;;;;15.40;10.20;;;;;;;14.45;100.00;96493.69;5036952;28;20441;-63
2021/09/09 01:48:56;;;;;;;17.92;10.27;;;;;;;14.60;100.00;96491.72;5032671;28;20045;-66
2021/09/09 01:51:24;;;;;;;14.27;9.43;;;;;;;14.68;100.00;96491.28;5023730;28;20455;-65
2021/09/09 01:53:50;;;;;;;16.40;9.70;;;;;;;14.45;100.00;96486.22;5022001;28;20070;-65
2021/09/09 01:56:16;;;;;;;16.42;10.10;;;;;;;13.96;100.00;96485.88;5016973;28;20132;-63
2021/09/09 01:58:41;;;;;;;18.35;10.93;;;;;;;13.67;100.00;96484.31;5021695;28;20132;-66
2021/09/09 02:01:07;;;;;;;15.88;10.13;;;;;;;13.78;100.00;96485.09;5017653;28;20045;-66
2021/09/09 02:03:33;;;;;;;17.08;10.95;;;;;;;13.97;100.00;96497.69;5021781;28;20041;-66
2021/09/09 02:05:58;;;;;;;14.43;9.65;;;;;;;14.04;100.00;96494.91;5020802;28;20091;-66
2021/09/09 02:08:23;;;;;;;15.70;10.45;;;;;;;13.96;100.00;96496.13;5017709;28;20080;-67
2021/09/09 02:10:49;;;;;;;16.38;9.85;;;;;;;13.90;100.00;96492.97;5035729;28;20048;-66
2021/09/09 02:13:15;;;;;;;17.80;11.55;;;;;;;13.95;100.00;96495.34;5037196;28;20065;-66
2021/09/09 02:15:42;;;;;;;17.15;11.05;;;;;;;13.95;100.00;96502.78;5020923;28;20597;-66
2021/09/09 02:18:07;;;;;;;18.95;10.68;;;;;;;13.89;100.00;96504.38;5014760;28;20050;-65
2021/09/09 02:20:32;;;;;;;17.92;11.38;;;;;;;13.85;100.00;96501.63;5020551;28;20548;-65
2021/09/09 02:22:58;;;;;;;17.38;10.85;;;;;;;13.73;100.00;96502.00;5021906;28;20053;-65
2021/09/09 02:25:23;;;;;;;19.92;11.32;;;;;;;13.75;100.00;96502.41;4999053;28;20041;-66
2021/09/09 02:27:49;;;;;;;14.13;9.82;;;;;;;13.96;100.00;96504.38;5001494;28;20499;-66
2021/09/09 02:30:14;;;;;;;15.30;9.77;;;;;;;14.11;100.00;96510.66;5014811;28;20057;-65
2021/09/09 02:32:40;;;;;;;14.57;9.70;;;;;;;14.27;100.00;96505.53;5034571;28;20042;-67
2021/09/09 02:35:06;;;;;;;13.48;10.07;;;;;;;14.36;100.00;96513.38;5026563;28;20388;-65
2021/09/09 02:37:32;;;;;;;16.10;10.02;;;;;;;14.26;100.00;96505.91;5021888;28;20046;-66
2021/09/09 02:39:57;;;;;;;13.70;9.50;;;;;;;14.19;100.00;96511.44;5026440;28;20044;-66
2021/09/09 02:42:22;;;;;;;15.05;9.57;;;;;;;14.26;100.00;96505.91;5032560;28;20512;-66
2021/09/09 02:44:48;;;;;;;15.75;9.23;;;;;;;14.01;100.00;96509.50;5029627;28;20498;-65
2021/09/09 02:47:14;;;;;;;17.05;9.80;;;;;;;13.89;100.00;96512.63;5032204;28;20490;-65
2021/09/09 02:49:39;;;;;;;15.43;9.80;;;;;;;13.92;100.00;96506.34;5033700;28;20045;-65
2021/09/09 02:52:05;;;;;;;16.45;9.65;;;;;;;13.88;100.00;96511.06;5018663;28;20041;-63
2021/09/09 02:54:30;;;;;;;19.83;10.65;;;;;;;13.80;100.00;96513.03;5018500;28;20141;-65
2021/09/09 02:56:56;;;;;;;15.60;9.75;;;;;;;13.79;100.00;96516.94;5019232;28;20045;-65
2021/09/09 02:59:21;;;;;;;18.30;9.82;;;;;;;13.88;100.00;96513.81;5014599;28;20694;-65
2021/09/09 03:01:46;;;;;;;13.73;9.02;;;;;;;13.94;100.00;96515.00;5020816;28;20046;-65
2021/09/09 03:04:12;;;;;;;15.52;9.35;;;;;;;14.01;100.00;96505.94;5024106;28;20033;-65
2021/09/09 03:06:37;;;;;;;14.48;10.13;;;;;;;14.13;100.00;96505.53;5030761;28;20057;-65
2021/09/09 03:09:03;;;;;;;14.82;9.00;;;;;;;14.23;100.00;96503.97;5019001;28;20129;-64
2021/09/09 03:11:28;;;;;;;20.48;10.02;;;;;;;14.23;100.00;96499.25;4998710;28;20041;-65
2021/09/09 03:13:54;;;;;;;16.30;9.70;;;;;;;14.32;100.00;96494.09;5018552;28;20076;-64
2021/09/09 03:16:19;;;;;;;14.70;9.20;;;;;;;14.29;100.00;96491.34;5014854;28;20033;-65
2021/09/09 03:18:44;;;;;;;16.23;9.07;;;;;;;14.35;100.00;96484.28;5020098;28;20052;-66
2021/09/09 03:21:10;;;;;;;16.33;9.52;;;;;;;14.42;100.00;96484.25;5009146;28;20512;-65
2021/09/09 03:23:35;;;;;;;13.88;9.57;;;;;;;14.48;100.00;96492.91;5020723;28;20573;-65
2021/09/09 03:26:01;;;;;;;15.45;9.27;;;;;;;14.52;100.00;96488.94;5019685;28;20402;-66
2021/09/09 03:28:26;;;;;;;12.98;8.52;;;;;;;14.57;100.00;96485.00;5015381;28;20288;-66
2021/09/09 03:30:52;;;;;;;14.75;9.07;;;;;;;14.53;100.00;96485.03;5019007;28;20049;-67
2021/09/09 03:33:17;;;;;;;13.43;8.50;;;;;;;14.50;100.00;96483.06;5015322;28;20125;-65
2021/09/09 03:35:43;;;;;;;15.88;9.00;;;;;;;14.47;100.00;96481.09;5017816;28;20037;-65
2021/09/09 03:38:09;;;;;;;15.70;9.15;;;;;;;14.43;100.00;96479.53;5018000;28;20109;-65
2021/09/09 03:40:36;;;;;;;14.65;9.70;;;;;;;14.33;100.00;96481.13;5019849;28;20076;-65
2021/09/09 03:43:02;;;;;;;13.25;8.52;;;;;;;14.25;100.00;96493.34;5012371;28;20494;-65
2021/09/09 03:45:28;;;;;;;21.60;10.38;;;;;;;14.10;100.00;96496.13;5019736;28;20060;-65
2021/09/09 03:47:53;;;;;;;14.88;8.98;;;;;;;13.90;100.00;96498.47;5020688;28;20498;-65
2021/09/09 03:50:19;;;;;;;18.90;11.23;;;;;;;13.84;100.00;96499.25;5015208;28;20470;-66
2021/09/09 03:52:44;;;;;;;15.15;9.70;;;;;;;13.77;100.00;96502.78;5019656;28;20076;-66
2021/09/09 03:55:10;;;;;;;20.50;10.82;;;;;;;13.55;100.00;96494.50;5011151;28;20494;-63
2021/09/09 03:57:35;;;;;;;19.48;10.77;;;;;;;13.41;100.00;96494.47;5019405;28;20041;-64
2021/09/09 04:00:02;;;;;;;15.23;11.25;;;;;;;13.48;100.00;96505.50;5018177;28;20398;-64
2021/09/09 04:02:28;;;;;;;20.05;12.52;;;;;;;13.34;100.00;96506.28;5013545;28;20038;-64
2021/09/09 04:04:53;;;;;;;18.15;11.90;;;;;;;12.99;100.00;96490.44;5020083;28;20389;-64
2021/09/09 04:07:19;;;;;;;17.17;11.48;;;;;;;12.79;100.00;96500.94;5016106;28;20053;-65
2021/09/09 04:09:44;;;;;;;16.67;10.88;;;;;;;12.86;100.00;96502.94;5018918;28;20033;-65
2021/09/09 04:12:09;;;;;;;20.65;12.85;;;;;;;12.78;100.00;96499.38;5011450;28;20041;-65
2021/09/09 04:14:35;;;;;;;19.88;12.25;;;;;;;12.84;100.00;96492.34;4991694;28;20399;-65
2021/09/09 04:17:00;;;;;;;19.65;13.13;;;;;;;13.07;100.00;96497.53;5017618;28;20490;-64
2021/09/09 04:19:26;;;;;;;22.35;11.85;;;;;;;13.26;100.00;96492.88;5014223;28;20144;-65
2021/09/09 04:21:53;;;;;;;19.77;11.80;;;;;;;13.38;100.00;96498.81;5021071;28;20109;-65
2021/09/09 04:24:22;;;;;;;20.17;12.10;;;;;;;13.43;100.00;96499.59;5012140;28;20405;-66
2021/09/09 04:26:48;;;;;;;20.23;12.27;;;;;;;13.46;100.00;96491.34;5015508;28;20046;-66
2021/09/09 04:29:14;;;;;;;21.45;13.52;;;;;;;13.52;100.00;96495.31;5012699;28;20085;-65
2021/09/09 04:31:39;;;;;;;21.50;12.27;;;;;;;13.76;100.00;96501.22;5018337;28;20128;-65
2021/09/09 04:34:05;;;;;;;25.13;13.75;;;;;;;13.65;100.00;96495.72;5016265;28;20050;-66
2021/09/09 04:36:31;;;;;;;23.15;14.07;;;;;;;13.28;100.00;96496.78;5004527;28;20053;-65
2021/09/09 04:38:56;;;;;;;24.17;14.25;;;;;;;13.28;100.00;96504.25;5025764;28;20042;-63
2021/09/09 04:41:22;;;;;;;25.52;15.43;;;;;;;13.19;100.00;96491.66;5017619;28;20055;-65
2021/09/09 04:43:47;;;;;;;25.95;14.32;;;;;;;13.17;100.00;96493.22;5021863;28;20072;-65
2021/09/09 04:46:12;;;;;;;23.42;14.18;;;;;;;13.24;100.00;96498.75;5014844;28;20049;-65
2021/09/09 04:48:38;;;;;;;23.75;14.32;;;;;;;13.36;100.00;96498.41;5021360;28;20383;-65
2021/09/09 04:51:04;;;;;;;25.38;14.25;;;;;;;13.56;100.00;96492.56;5019412;28;20064;-65
2021/09/09 04:53:29;;;;;;;18.20;12.05;;;;;;;13.57;100.00;96497.66;5022792;28;20050;-65
2021/09/09 04:55:55;;;;;;;22.30;12.20;;;;;;;13.79;100.00;96489.41;5018977;28;20054;-65
2021/09/09 04:58:20;;;;;;;19.95;11.60;;;;;;;13.90;100.00;96494.91;5017901;28;20073;-65
2021/09/09 05:00:46;;;;;;;16.52;11.35;;;;;;;14.05;100.00;96504.00;5021302;28;20052;-65
2021/09/09 05:03:11;;;;;;;22.63;11.18;;;;;;;14.09;100.00;96497.28;5017707;28;20033;-65
2021/09/09 05:05:37;;;;;;;22.92;12.27;;;;;;;14.05;100.00;96496.50;5021182;28;20445;-66
2021/09/09 05:08:02;;;;;;;17.42;11.40;;;;;;;14.03;100.00;96498.88;5025304;28;20125;-65
2021/09/09 05:10:28;;;;;;;17.63;11.75;;;;;;;14.17;100.00;96498.09;5018071;28;20107;-65
2021/09/09 05:12:53;;;;;;;16.30;11.60;;;;;;;14.36;100.00;96499.63;5022645;28;20483;-66
2021/09/09 05:15:18;;;;;;;18.00;10.32;;;;;;;14.51;100.00;96494.84;5014332;28;20454;-65
2021/09/09 05:17:44;;;;;;;14.95;9.57;;;;;;;14.68;100.00;96499.56;5020515;28;20136;-65
2021/09/09 05:20:10;;;;;;;17.92;10.30;;;;;;;14.86;100.00;96496.75;5016021;28;20053;-66
2021/09/09 05:22:35;;;;;;;14.50;9.15;;;;;;;15.12;100.00;96491.91;5019752;28;20041;-65
2021/09/09 05:25:02;;;;;;;14.27;8.88;;;;;;;15.51;100.00;96499.19;5021313;28;20521;-65
2021/09/09 05:27:28;;;;;;;15.45;8.45;;;;;;;15.82;100.00;96496.63;5021372;28;20049;-67
2021/09/09 05:29:53;;;;;;;17.80;9.40;;;;;;;15.71;98.66;96504.19;5038778;28;20076;-65
2021/09/09 05:32:19;;;;;;;14.00;8.85;;;;;;;15.79;99.44;96503.78;5030900;28;20049;-64
2021/09/09 05:34:44;;;;;;;18.17;8.98;;;;;;;15.96;97.81;96504.81;5022046;28;20092;-64
2021/09/09 05:37:10;;;;;;;15.63;9.38;;;;;;;15.93;96.93;96500.09;5032223;28;20434;-64
2021/09/09 05:39:35;;;;;;;14.50;8.85;;;;;;;16.00;97.11;96505.56;5028819;28;20037;-64
2021/09/09 05:42:00;;;;;;;15.13;8.70;;;;;;;16.10;96.33;96503.13;5021903;28;20041;-63
2021/09/09 05:44:26;;;;;;;14.35;10.13;;;;;;;15.72;97.33;96508.50;5016396;28;20085;-65
2021/09/09 05:46:51;;;;;;;16.40;10.32;;;;;;;15.21;100.00;96513.53;5019768;28;20037;-63
2021/09/09 05:49:17;;;;;;;20.08;10.35;;;;;;;15.10;100.00;96514.38;5017693;28;20037;-64
2021/09/09 05:51:42;;;;;;;18.17;9.95;;;;;;;15.62;100.00;96510.94;5021998;28;20049;-65
2021/09/09 05:54:08;;;;;;;14.15;8.48;;;;;;;16.54;97.04;96507.06;5017638;28;20049;-65
2021/09/09 05:56:33;;;;;;;12.65;8.38;;;;;;;16.96;92.78;96516.09;5021939;28;20132;-65
2021/09/09 05:59:00;;;;;;;14.43;7.78;;;;;;;17.31;90.00;96517.66;5020635;28;20517;-65
2021/09/09 06:01:27;;;;;;;13.45;8.98;;;;;;;16.82;91.03;96511.50;4999878;28;20561;-65
2021/09/09 06:03:54;;;;;;;13.95;8.85;;;;;;;16.34;94.38;96524.22;5005675;28;20143;-65
2021/09/09 06:06:19;;;;;;;15.18;8.45;;;;;;;16.43;94.73;96516.22;5038114;28;20052;-65
2021/09/09 06:08:45;;;;;;;11.95;8.23;;;;;;;16.69;94.48;96516.78;5025213;28;20041;-65
2021/09/09 06:11:11;;;;;;;14.13;7.95;;;;;;;17.14;92.72;96522.22;5022108;28;20049;-64
2021/09/09 06:13:36;;;;;;;11.90;8.32;;;;;;;17.87;88.30;96520.06;5019735;28;20053;-64
2021/09/09 06:16:02;;;;;;;12.73;7.90;;;;;;;18.56;84.89;96522.47;5000271;28;20153;-65
2021/09/09 06:18:27;;;;;;;12.73;7.85;;;;;;;19.59;78.13;96518.06;5011375;28;20142;-65
2021/09/09 06:20:53;;;;;;;12.25;7.78;;;;;;;20.44;74.53;96523.63;5022220;28;20045;-65
2021/09/09 06:23:18;;;;;;;12.35;7.70;;;;;;;21.61;69.69;96519.25;5017182;28;20055;-65
2021/09/09 06:25:43;;;;;;;12.07;8.38;;;;;;;21.62;68.97;96523.63;5021948;28;20382;-65
2021/09/09 06:28:10;;;;;;;10.90;7.25;;;;;;;22.39;66.16;96527.19;5016172;28;20041;-65
2021/09/09 06:30:36;;;;;;;12.82;7.80;;;;;;;22.58;63.36;96530.16;5021253;28;20044;-65
2021/09/09 06:33:01;;;;;;;10.20;6.82;;;;;;;22.22;64.74;96529.31;5017751;28;20037;-65
2021/09/09 06:35:29;;;;;;;14.02;7.53;;;;;;;;;;5021538;28;20052;-65
2021/09/09 06:37:55;;;;;;;12.23;7.72;;;;;;;21.36;68.58;96518.75;5041241;28;20092;-66
2021/09/09 06:40:21;;;;;;;11.50;7.35;;;;;;;21.10;69.84;96522.69;5027523;28;20050;-66
2021/09/09 06:42:46;;;;;;;11.75;8.00;;;;;;;20.58;71.80;96521.69;5022917;28;20056;-66
2021/09/09 06:45:12;;;;;;;17.42;7.82;;;;;;;20.23;73.83;96521.38;5017414;28;20049;-67
2021/09/09 06:47:37;;;;;;;10.88;7.88;;;;;;;19.62;76.79;96520.78;5022155;28;20038;-66
2021/09/09 06:50:03;;;;;;;15.93;9.20;;;;;;;19.45;79.55;96519.97;5018899;28;20121;-67
2021/09/09 06:52:28;;;;;;;17.05;9.00;;;;;;;20.08;76.35;96520.97;5017068;28;20481;-67
2021/09/09 06:54:54;;;;;;;19.02;9.05;;;;;;;21.31;70.79;96526.88;5021440;28;20063;-66
2021/09/09 06:57:19;;;;;;;15.68;9.02;;;;;;;21.70;69.60;96533.34;5015498;28;20046;-64
2021/09/09 06:59:45;;;;;;;15.00;8.15;;;;;;;22.45;66.39;96542.13;5021433;28;20133;-67
2021/09/09 07:02:10;;;;;;;10.60;7.35;;;;;;;23.24;63.70;96533.81;5016254;28;20394;-66
2021/09/09 07:04:35;;;;;;;12.38;8.20;;;;;;;23.23;62.39;96534.28;5020745;28;20577;-66
2021/09/09 07:07:01;;;;;;;11.23;7.82;;;;;;;23.10;62.22;96542.72;5020653;28;20046;-67
2021/09/09 07:09:26;;;;;;;10.50;7.40;;;;;;;22.89;63.14;96536.63;5015681;28;20073;-66
2021/09/09 07:11:52;;;;;;;10.77;7.63;;;;;;;21.42;67.88;96537.72;5021429;28;20049;-66
2021/09/09 07:14:17;;;;;;;17.30;9.27;;;;;;;21.06;71.28;96536.72;5014772;28;20042;-69
2021/09/09 07:16:43;;;;;;;9.57;7.53;;;;;;;21.70;69.35;96542.47;5016544;28;20497;-66
2021/09/09 07:19:08;;;;;;;11.02;6.35;;;;;;;22.36;62.33;96544.03;5015328;28;20049;-65
2021/09/09 07:21:33;;;;;;;11.07;6.80;;;;;;;20.83;70.65;96546.09;5019117;28;20041;-67
2021/09/09 07:23:59;;;;;;;11.18;7.55;;;;;;;21.03;68.81;96537.63;5018542;28;20422;-66
2021/09/09 07:26:24;;;;;;;13.77;7.35;;;;;;;20.55;70.62;96545.59;5013009;28;20045;-66
2021/09/09 07:28:50;;;;;;;13.20;7.63;;;;;;;20.79;70.64;96542.63;5018311;28;20457;-66
2021/09/09 07:31:15;;;;;;;12.25;6.60;;;;;;;21.96;68.14;96553.63;5014960;28;20041;-66
2021/09/09 07:33:40;;;;;;;11.43;5.85;;;;;;;23.95;60.88;96554.75;5021243;28;20403;-64
2021/09/09 07:36:08;;;;;;;10.50;6.05;;;;;;;25.76;49.85;96549.47;5015063;28;20066;-65
2021/09/09 07:38:34;;;;;;;9.68;6.32;;;;;;;24.71;51.63;96552.50;5020132;28;20086;-65
2021/09/09 07:41:02;;;;;;;9.02;6.00;;;;;;;24.33;53.87;96547.28;5020127;28;20042;-66
2021/09/09 07:43:27;;;;;;;10.38;6.13;;;;;;;24.46;53.48;96547.91;5019235;28;20033;-65
2021/09/09 07:45:53;;;;;;;9.57;6.50;;;;;;;23.47;56.45;96554.94;5024825;28;20811;-65
2021/09/09 07:48:18;;;;;;;9.40;6.13;;;;;;;22.60;57.77;96558.38;5018235;28;20041;-66
2021/09/09 07:50:44;;;;;;;13.65;6.10;;;;;;;21.74;62.08;96559.09;5020216;28;20081;-66
2021/09/09 07:53:10;;;;;;;9.48;6.40;;;;;;;21.15;65.95;96555.59;5014529;28;20079;-67
2021/09/09 07:55:36;;;;;;;7.95;6.15;;;;;;;21.58;63.83;96557.16;5021027;28;20083;-66
2021/09/09 07:58:01;;;;;;;9.30;6.30;;;;;;;21.95;63.61;96555.66;5020515;28;20124;-66
2021/09/09 08:00:26;;;;;;;10.38;5.65;;;;;;;22.88;59.21;96560.19;5012107;28;20077;-65
2021/09/09 08:02:52;;;;;;;9.13;5.18;;;;;;;24.02;54.58;96565.66;5002458;28;20533;-64
2021/09/09 08:05:17;;;;;;;10.75;4.93;;;;;;;24.91;52.35;96563.25;5013856;28;20099;-64
2021/09/09 08:07:45;;;;;;;12.10;4.93;;;;;;;25.31;50.47;96565.13;5020965;28;20087;-66
2021/09/09 08:10:16;;;;;;;9.45;5.03;;;;;;;25.23;51.40;96571.50;5015438;28;20513;-65
2021/09/09 08:12:44;;;;;;;15.13;5.97;;;;;;;25.88;50.15;96569.41;5024491;28;20060;-66
2021/09/09 08:15:10;;;;;;;7.95;5.65;;;;;;;24.54;53.06;96580.03;5021413;28;20094;-66
2021/09/09 08:17:36;;;;;;;11.50;5.90;;;;;;;23.44;56.72;96588.59;5021307;28;20041;-65
2021/09/09 08:20:03;;;;;;;13.85;6.32;;;;;;;21.71;62.95;96583.03;5016175;28;20047;-65
2021/09/09 08:22:28;;;;;;;15.43;6.47;;;;;;;21.49;65.06;96587.69;5000428;28;20037;-64
2021/09/09 08:24:54;;;;;;;14.02;6.68;;;;;;;20.91;67.19;96592.03;5016107;28;20037;-64
2021/09/09 08:27:20;;;;;;;10.23;5.90;;;;;;;21.02;67.21;96591.72;5014770;28;20048;-65
2021/09/09 08:29:46;;;;;;;10.80;6.07;;;;;;;21.04;67.68;96586.50;5016457;28;20132;-66
2021/09/09 08:32:12;;;;;;;10.18;5.90;;;;;;;21.50;66.94;96587.25;5014634;28;20132;-63
2021/09/09 08:34:37;;;;;;;12.43;5.75;;;;;;;22.24;63.78;96584.66;5000916;28;20111;-67
2021/09/09 08:37:03;;;;;;;9.27;5.47;;;;;;;24.27;56.48;96591.84;5014269;28;20561;-67
2021/09/09 08:39:29;;;;;;;11.07;5.00;;;;;;;25.27;53.61;96580.56;5019883;28;20141;-65
2021/09/09 08:41:55;;;;;;;9.38;4.90;;;;;;;25.08;52.36;96590.97;5018724;28;20040;-65
2021/09/09 08:44:21;;;;;;;7.88;4.90;;;;;;;23.91;55.04;96586.88;5013034;28;20537;-67
2021/09/09 08:46:46;;;;;;;8.50;4.75;;;;;;;24.10;54.98;96593.34;5019371;28;20069;-65
2021/09/09 08:49:12;;;;;;;6.90;4.97;;;;;;;23.17;57.75;96598.31;5009873;28;20124;-65
2021/09/09 08:51:38;;;;;;;8.38;5.53;;;;;;;22.84;60.10;96592.28;4990219;28;20049;-67
2021/09/09 08:54:05;;;;;;;7.57;4.80;;;;;;;23.75;57.26;96590.66;5016353;28;20044;-68
2021/09/09 08:56:31;;;;;;;21.20;7.55;;;;;;;24.08;56.38;96602.22;4992905;28;20056;-66
2021/09/09 08:58:56;;;;;;;8.18;4.43;;;;;;;23.93;55.94;96603.97;5011055;28;21161;-66
2021/09/09 09:01:22;;;;;;;10.38;5.18;;;;;;;23.85;56.21;96603.47;5011185;28;20058;-66
2021/09/09 09:03:57;;;;;;;9.30;4.95;;;;;;;23.98;56.46;96604.16;5019217;28;20052;-64
2021/09/09 09:06:25;;;;;;;8.73;5.15;;;;;;;24.45;55.71;96598.75;5010307;28;20512;-65
2021/09/09 09:09:04;;;;;;;6.80;4.97;;;;;;;24.40;55.34;96603.72;5002219;28;20034;-64
2021/09/09 09:11:29;;;;;;;10.60;4.70;;;;;;;24.15;55.96;96601.94;5018894;28;20037;-64
2021/09/09 09:13:55;;;;;;;11.57;4.95;;;;;;;23.70;57.77;96610.81;5002942;28;20083;-63
2021/09/09 09:16:21;;;;;;;8.75;4.40;;;;;;;23.43;59.41;96612.19;5015676;28;20045;-65
2021/09/09 09:18:48;;;;;;;6.72;4.45;;;;;;;24.10;57.46;96607.34;5030716;28;20050;-67
2021/09/09 09:21:14;;;;;;;8.05;5.20;;;;;;;24.35;57.42;96612.72;5037081;28;20045;-65
2021/09/09 09:23:51;;;;;;;12.82;5.30;;;;;;;24.35;55.90;96606.38;5041550;28;20038;-67
2021/09/09 09:26:18;;;;;;;12.35;4.72;;;;;;;24.82;54.53;96616.47;5018072;28;20037;-66
2021/09/09 09:28:52;;;;;;;8.68;4.30;;;;;;;25.42;51.67;96617.16;5030785;28;20045;-66
2021/09/09 09:31:22;;;;;;;7.68;4.20;;;;;;;25.00;53.26;96624.13;5016079;28;20061;-66
2021/09/09 09:33:54;;;;;;;6.25;4.18;;;;;;;25.56;52.45;96620.09;5022605;28;20041;-66
2021/09/09 09:36:28;;;;;;;10.73;4.45;;;;;;;25.94;49.62;96624.41;5018189;28;20046;-65
2021/09/09 09:39:03;;;;;;;8.60;4.15;;;;;;;26.51;48.50;96620.19;5022939;28;20184;-65
2021/09/09 09:41:29;;;;;;;8.80;4.28;;;;;;;27.03;46.93;96628.50;5002068;28;20573;-66
2021/09/09 09:43:59;;;;;;;7.68;4.20;;;;;;;26.41;48.16;96627.84;5022888;28;20045;-66
2021/09/09 09:46:25;;;;;;;12.43;4.63;;;;;;;25.70;50.36;96627.09;5017535;28;20080;-65
2021/09/09 09:48:51;;;;;;;7.30;4.55;;;;;;;24.41;54.26;96626.91;5023082;28;20088;-64
2021/09/09 09:51:40;;;;;;;8.13;3.55;;;;;;;25.03;53.09;96625.19;5017784;28;20042;-64
2021/09/09 09:54:10;;;;;;;5.78;2.95;;;;;;;26.47;48.29;96620.34;5017617;28;20041;-63
2021/09/09 09:56:37;;;;;;;9.38;3.72;;;;;;;25.93;47.54;96619.31;5020253;28;20045;-64
2021/09/09 09:59:03;;;;;;;5.35;2.95;;;;;;;26.92;45.60;96617.78;5020427;28;20029;-65
2021/09/09 10:01:30;;;;;;;7.25;3.10;;;;;;;28.14;41.26;96617.03;5021951;28;20368;-65
2021/09/09 10:04:01;;;;;;;5.60;3.25;;;;;;;27.85;41.83;96618.56;5023149;28;20049;-66
2021/09/09 10:06:28;;;;;;;4.50;2.90;;;;;;;28.23;41.97;96624.63;5037352;28;20047;-65
2021/09/09 10:08:54;;;;;;;7.53;3.08;;;;;;;28.10;41.97;96621.34;5029910;28;20132;-64
2021/09/09 10:11:20;;;;;;;8.13;3.22;;;;;;;28.84;40.59;96623.25;5016475;28;20518;-65
2021/09/09 10:13:46;;;;;;;5.85;2.65;;;;;;;29.60;39.39;96611.09;5022011;28;20052;-65
2021/09/09 10:16:15;;;;;;;5.68;3.00;;;;;;;28.38;41.30;96616.16;5016905;28;20041;-66
2021/09/09 10:18:42;;;;;;;4.63;2.90;;;;;;;27.55;44.03;96608.56;5022349;28;20051;-64
2021/09/09 10:21:07;;;;;;;10.30;3.20;;;;;;;28.10;43.73;96613.66;5017633;28;20430;-65
2021/09/09 10:23:33;;;;;;;3.47;2.38;;;;;;;28.81;43.29;96619.38;5005588;28;20042;-66
2021/09/09 10:25:58;;;;;;;6.90;2.88;;;;;;;28.29;44.89;96619.06;5024517;28;20048;-65
2021/09/09 10:28:33;;;;;;;6.22;2.97;;;;;;;27.17;47.15;96612.91;5016610;28;20037;-66
2021/09/09 10:31:13;;;;;;;5.65;3.22;;;;;;;26.37;49.87;96616.03;5022595;28;20049;-65
2021/09/09 10:33:44;;;;;;;6.20;3.17;;;;;;;27.04;48.68;96615.97;5020039;28;20693;-65
2021/09/09 10:36:40;;;;;;;8.07;2.88;;;;;;;26.58;47.28;96625.44;5035599;28;20539;-65
2021/09/09 10:39:08;;;;;;;10.43;3.40;;;;;;;26.26;49.40;96624.19;5027372;28;20034;-65
2021/09/09 10:41:34;;;;;;;4.75;2.78;;;;;;;25.99;48.23;96619.44;5024817;28;20037;-66
2021/09/09 10:44:01;;;;;;;6.10;2.60;;;;;;;25.84;49.16;96617.25;5040527;28;20073;-65
2021/09/09 10:46:32;;;;;;;8.88;3.15;;;;;;;26.27;48.45;96615.28;5036676;28;20037;-64
2021/09/09 10:49:25;;;;;;;4.88;2.50;;;;;;;24.70;49.83;96611.78;5039097;28;20056;-66
2021/09/09 10:52:16;;;;;;;5.53;2.90;;;;;;;25.50;49.42;96604.38;5039194;28;20041;-66
2021/09/09 10:55:02;;;;;;;8.38;3.88;;;;;;;26.43;48.05;96608.50;5039357;28;20436;-66
2021/09/09 10:57:28;;;;;;;4.07;2.50;;;;;;;26.05;48.60;96606.31;5020691;28;20052;-64
2021/09/09 10:59:53;;;;;;;4.95;2.80;;;;;;;26.41;46.16;96605.38;5051040;28;20049;-65
2021/09/09 11:02:19;;;;;;;4.90;2.45;;;;;;;26.80;45.84;96599.13;5045865;28;20128;-66
2021/09/09 11:04:45;;;;;;;3.53;2.13;;;;;;;25.22;48.63;96590.34;5042083;28;20375;-65
2021/09/09 11:07:27;;;;;;;3.33;2.33;;;;;;;24.20;52.03;96592.13;5034594;28;20120;-64
2021/09/09 11:10:06;;;;;;;3.40;2.47;;;;;;;23.92;55.70;96585.66;5041961;28;20067;-64
2021/09/09 11:12:36;;;;;;;8.20;3.33;;;;;;;24.83;52.79;96595.63;5038262;28;20064;-64
2021/09/09 11:15:11;;;;;;;4.78;2.40;;;;;;;25.50;50.70;96584.75;5039739;28;20041;-66
2021/09/09 11:17:37;;;;;;;6.85;3.20;;;;;;;25.65;49.22;96582.09;5041009;28;20045;-64
2021/09/09 11:20:05;;;;;;;6.32;2.63;;;;;;;26.04;46.82;96577.47;5038582;28;20037;-65